Terminal Aerodrome Forecast
Issued by NWS

Home | Current Version | Previous Version | Text Only | Print | Product List | Glossary On
Versions: 1 2 3 4 5 6 7 8 9 10 11 12 13 14 15 16 17 18 19
000
FTUS46 KSEW 251725
TAFOLM
TAF
KOLM 251725Z 2518/2618 21007KT P6SM VCSH SCT030 BKN050
      TEMPO 2518/2520 -SHRA BKN030 BKN050
     FM252200 22007KT P6SM SCT035 BKN050
     FM260100 VRB03KT P6SM SCT050
     FM260800 VRB03KT P6SM MIFG SCT080 OVC150
     FM261300 VRB03KT P6SM BKN070 OVC120
     FM261600 18007KT P6SM -RA BKN045 OVC070=

USA.gov is the U.S. government's official web portal to all federal, state and local government web resources and services.